createdAt,value
2019-05-12T00:01:09.167Z,101808.29
2019-05-12T00:03:39.499Z,101816.50
2019-05-12T00:06:09.806Z,101819.50
2019-05-12T00:08:39.703Z,101826.80
2019-05-12T00:11:09.684Z,101821.57
2019-05-12T00:13:39.751Z,101821.55
2019-05-12T00:16:09.720Z,101836.74
2019-05-12T00:18:39.501Z,101834.78
2019-05-12T00:21:09.639Z,101833.12
2019-05-12T00:23:58.262Z,101839.19
2019-05-12T00:26:28.459Z,101845.60
2019-05-12T00:28:58.905Z,101846.81
2019-05-12T00:31:29.252Z,101849.63
2019-05-12T00:34:00.193Z,101855.36
2019-05-12T00:36:31.436Z,101862.45
2019-05-12T00:39:02.377Z,101870.11
2019-05-12T00:41:32.465Z,101871.89
2019-05-12T00:44:02.287Z,101881.34
2019-05-12T00:46:33.333Z,101880.95
2019-05-12T00:49:03.226Z,101887.02
2019-05-12T00:51:33.369Z,101894.30
2019-05-12T00:54:03.548Z,101893.01
2019-05-12T00:56:33.434Z,101892.10
2019-05-12T00:59:03.689Z,101897.48
2019-05-12T01:01:33.643Z,101901.92
2019-05-12T01:04:03.597Z,101900.09
2019-05-12T01:06:33.701Z,101904.87
2019-05-12T01:09:08.543Z,101905.25
2019-05-12T01:11:40.633Z,101902.52
2019-05-12T01:14:09.587Z,101913.39
2019-05-12T01:16:39.485Z,101910.13
2019-05-12T01:19:09.323Z,101916.34
2019-05-12T01:21:42.597Z,101926.64
2019-05-12T01:24:12.563Z,101927.89
2019-05-12T01:26:42.932Z,101933.05
2019-05-12T01:29:12.952Z,101931.75
2019-05-12T01:31:50.441Z,101934.35
2019-05-12T01:34:20.559Z,101945.06
2019-05-12T01:36:50.425Z,101944.50
2019-05-12T01:39:20.262Z,101945.55
2019-05-12T01:41:50.408Z,101958.05
2019-05-12T01:44:20.583Z,101968.20
2019-05-12T01:46:50.565Z,101970.50
2019-05-12T01:49:20.647Z,101971.56
2019-05-12T01:51:50.536Z,101977.58
2019-05-12T01:54:20.396Z,101980.75
2019-05-12T01:56:50.632Z,101995.17
2019-05-12T01:59:21.070Z,101996.75
2019-05-12T02:01:51.033Z,102002.77
2019-05-12T02:04:21.041Z,102001.66
2019-05-12T02:06:51.561Z,102013.05
2019-05-12T02:09:23.043Z,102009.62
2019-05-12T02:11:53.043Z,102015.87
2019-05-12T02:14:23.049Z,102022.25
2019-05-12T02:16:53.443Z,102021.97
2019-05-12T02:19:23.250Z,102019.89
2019-05-12T02:21:53.184Z,102038.23
2019-05-12T02:24:27.118Z,102037.60
2019-05-12T02:26:54.629Z,102046.01
2019-05-12T02:29:24.550Z,102043.45
2019-05-12T02:31:54.430Z,102040.05
2019-05-12T02:34:25.365Z,102052.64
2019-05-12T02:36:55.763Z,102054.02
2019-05-12T02:39:26.181Z,102051.47
2019-05-12T02:41:56.271Z,102053.91
2019-05-12T02:44:26.078Z,102055.34
2019-05-12T02:46:56.483Z,102056.00
2019-05-12T02:49:26.528Z,102058.63
2019-05-12T02:51:56.843Z,102061.95
2019-05-12T02:54:47.016Z,102066.40
2019-05-12T02:56:59.244Z,102072.64
2019-05-12T02:59:34.668Z,102068.77
2019-05-12T03:02:05.576Z,102072.91
2019-05-12T03:04:36.657Z,102077.64
2019-05-12T03:07:06.856Z,102082.91
2019-05-12T03:09:37.034Z,102090.87
2019-05-12T03:12:07.436Z,102088.10
2019-05-12T03:14:40.901Z,102091.20
2019-05-12T03:17:09.165Z,102087.86
2019-05-12T03:19:39.772Z,102090.80
2019-05-12T03:22:09.598Z,102095.42
2019-05-12T03:24:39.426Z,102092.72
2019-05-12T03:27:09.227Z,102102.03
2019-05-12T03:29:39.225Z,102100.98
2019-05-12T03:32:09.842Z,102100.85
2019-05-12T03:34:39.650Z,102107.23
2019-05-12T03:37:10.524Z,102115.76
2019-05-12T03:39:40.716Z,102114.78
2019-05-12T03:42:10.617Z,102119.45
2019-05-12T03:44:40.670Z,102127.91
2019-05-12T03:47:14.208Z,102134.75
2019-05-12T03:49:45.451Z,102111.79
2019-05-12T03:52:15.451Z,102134.73
2019-05-12T03:54:45.435Z,102141.47
2019-05-12T03:57:15.737Z,102144.09
2019-05-12T03:59:46.332Z,102147.08
2019-05-12T04:02:16.236Z,102147.08
2019-05-12T04:04:46.649Z,102146.34
2019-05-12T04:07:17.242Z,102153.62
2019-05-12T04:09:47.239Z,102154.50
2019-05-12T04:12:17.850Z,102161.91
2019-05-12T04:14:47.755Z,102153.20
2019-05-12T04:17:17.759Z,102153.20
2019-05-12T04:19:48.550Z,102175.69
2019-05-12T04:22:18.555Z,102181.88
2019-05-12T04:24:48.538Z,102192.52
2019-05-12T04:27:18.443Z,102196.00
2019-05-12T04:29:48.618Z,102195.63
2019-05-12T04:32:19.204Z,102195.63
2019-05-12T04:34:49.195Z,102203.38
2019-05-12T04:37:19.544Z,102205.04
2019-05-12T04:39:49.463Z,102215.96
2019-05-12T04:42:19.550Z,102215.96
2019-05-12T04:44:49.361Z,102220.69
2019-05-12T04:47:19.358Z,102225.42
2019-05-12T04:49:49.811Z,102221.21
2019-05-12T04:52:19.705Z,102223.70
2019-05-12T04:54:49.633Z,102226.89
2019-05-12T04:57:21.133Z,102225.59
2019-05-12T04:59:54.103Z,102235.11
2019-05-12T05:02:24.974Z,102232.81
2019-05-12T05:04:54.776Z,102233.06
2019-05-12T05:07:24.737Z,102232.06
2019-05-12T05:09:54.992Z,102238.00
2019-05-12T05:12:25.427Z,102227.47
2019-05-12T05:14:55.382Z,102230.00
2019-05-12T05:17:25.567Z,102232.89
2019-05-12T05:19:55.557Z,102229.14
2019-05-12T05:22:25.511Z,102236.20
2019-05-12T05:24:55.701Z,102246.77
2019-05-12T05:27:26.063Z,102255.93
2019-05-12T05:29:56.060Z,102259.14
2019-05-12T05:32:26.862Z,102277.52
2019-05-12T05:34:57.924Z,102280.19
2019-05-12T05:37:30.725Z,102283.75
2019-05-12T05:40:00.476Z,102277.15
2019-05-12T05:42:32.911Z,102270.86
2019-05-12T05:45:04.642Z,102272.42
2019-05-12T05:47:33.769Z,102276.85
2019-05-12T05:50:04.881Z,102282.54
2019-05-12T05:52:38.747Z,102285.42
2019-05-12T05:55:14.650Z,102293.25
2019-05-12T05:57:38.559Z,102295.52
2019-05-12T06:00:17.320Z,102299.73
2019-05-12T06:02:43.913Z,102296.83
2019-05-12T06:05:14.540Z,102296.19
2019-05-12T06:07:44.476Z,102301.36
2019-05-12T06:10:15.131Z,102303.11
2019-05-12T06:12:50.688Z,102312.59
2019-05-12T06:15:17.298Z,102313.62
2019-05-12T06:17:47.235Z,102323.52
2019-05-12T06:20:17.273Z,102321.94
2019-05-12T06:22:48.589Z,102315.42
2019-05-12T06:25:18.974Z,102319.29
2019-05-12T06:27:51.020Z,102330.67
2019-05-12T06:30:20.647Z,102326.73
2019-05-12T06:32:52.014Z,102336.65
2019-05-12T06:35:24.011Z,102333.22
2019-05-12T06:37:59.969Z,102335.24
2019-05-12T06:40:25.562Z,102336.39
2019-05-12T06:42:57.124Z,102330.30
2019-05-12T06:45:33.180Z,102341.64
2019-05-12T06:48:00.632Z,102342.17
2019-05-12T06:50:36.854Z,102354.20
2019-05-12T06:53:04.728Z,102352.59
2019-05-12T06:55:38.827Z,102348.59
2019-05-12T06:58:05.628Z,102351.04
2019-05-12T07:00:35.855Z,102351.78
2019-05-12T07:03:05.953Z,102356.82
2019-05-12T07:05:38.918Z,102350.53
2019-05-12T07:08:08.175Z,102353.97
2019-05-12T07:10:43.569Z,102361.52
2019-05-12T07:13:16.604Z,102369.60
2019-05-12T07:15:43.751Z,102370.52
2019-05-12T07:18:17.655Z,102377.73
2019-05-12T07:20:46.693Z,102387.45
2019-05-12T07:23:19.554Z,102392.50
2019-05-12T07:25:48.033Z,102384.83
2019-05-12T07:28:17.911Z,102389.53
2019-05-12T07:30:48.561Z,102385.05
2019-05-12T07:33:18.803Z,102390.31
2019-05-12T07:35:53.244Z,102389.97
2019-05-12T07:38:25.725Z,102391.55
2019-05-12T07:40:54.813Z,102394.62
2019-05-12T07:43:27.440Z,102398.08
2019-05-12T07:46:02.288Z,102395.17
2019-05-12T07:48:30.537Z,102393.72
2019-05-12T07:51:00.911Z,102400.79
2019-05-12T07:53:33.736Z,102407.44
2019-05-12T07:56:04.125Z,102397.53
2019-05-12T07:58:34.291Z,102410.10
2019-05-12T08:01:07.772Z,102418.41
2019-05-12T08:03:36.359Z,102418.05
2019-05-12T08:06:06.375Z,102421.86
2019-05-12T08:08:44.197Z,102414.84
2019-05-12T08:11:08.778Z,102415.19
2019-05-12T08:13:40.898Z,102419.31
2019-05-12T08:16:10.809Z,102416.63
2019-05-12T08:18:41.237Z,102416.09
2019-05-12T08:21:13.805Z,102422.76
2019-05-12T08:23:44.489Z,102409.62
2019-05-12T08:26:18.592Z,102390.52
2019-05-12T08:28:46.363Z,102419.51
2019-05-12T08:31:17.508Z,102414.62
2019-05-12T08:33:47.655Z,102414.83
2019-05-12T08:36:17.926Z,102417.70
2019-05-12T08:38:47.801Z,102420.05
2019-05-12T08:41:18.083Z,102421.63
2019-05-12T08:43:54.455Z,102422.72
2019-05-12T08:46:19.785Z,102419.66
2019-05-12T08:48:51.689Z,102423.30
2019-05-12T08:51:21.306Z,102410.45
2019-05-12T08:53:56.287Z,102415.56
2019-05-12T08:56:25.982Z,102421.20
2019-05-12T08:58:54.771Z,102429.18
2019-05-12T09:01:28.712Z,102431.57
2019-05-12T09:04:00.294Z,102432.86
2019-05-12T09:06:28.899Z,102427.60
2019-05-12T09:08:58.894Z,102428.14
2019-05-12T09:11:28.841Z,102442.48
2019-05-12T09:14:00.970Z,102435.44
2019-05-12T09:16:30.425Z,102444.95
2019-05-12T09:19:01.435Z,102438.14
2019-05-12T09:21:34.300Z,102444.06
2019-05-12T09:24:04.259Z,102442.78
2019-05-12T09:26:35.544Z,102442.50
2019-05-12T09:29:07.415Z,102442.80
2019-05-12T09:31:37.332Z,102445.22
2019-05-12T09:34:11.947Z,102440.85
2019-05-12T09:36:44.093Z,102445.97
2019-05-12T09:39:14.309Z,102440.05
2019-05-12T09:41:50.663Z,102440.84
2019-05-12T09:44:20.339Z,102435.97
2019-05-12T09:46:47.536Z,102442.42
2019-05-12T09:49:25.505Z,102448.00
2019-05-12T09:51:49.055Z,102448.27
2019-05-12T09:54:26.164Z,102448.48
2019-05-12T09:56:55.347Z,102452.59
2019-05-12T09:59:25.765Z,102454.77
2019-05-12T10:01:55.389Z,102460.22
2019-05-12T10:04:25.571Z,102458.90
2019-05-12T10:06:55.520Z,102458.42
2019-05-12T10:09:25.632Z,102449.67
2019-05-12T10:12:00.463Z,102452.42
2019-05-12T10:14:27.344Z,102462.81
2019-05-12T10:16:57.517Z,102468.67
2019-05-12T10:19:27.488Z,102470.52
2019-05-12T10:21:59.465Z,102473.91
2019-05-12T10:24:34.461Z,102474.17
2019-05-12T10:27:00.752Z,102468.09
2019-05-12T10:29:32.379Z,102473.53
2019-05-12T10:32:03.981Z,102482.27
2019-05-12T10:34:36.022Z,102468.70
2019-05-12T10:37:05.887Z,102474.61
2019-05-12T10:39:35.777Z,102472.55
2019-05-12T10:42:06.677Z,102464.28
2019-05-12T10:44:40.729Z,102479.78
2019-05-12T10:47:08.594Z,102490.59
2019-05-12T10:49:39.008Z,102492.30
2019-05-12T10:52:08.819Z,102492.66
2019-05-12T10:54:40.557Z,102489.03
2019-05-12T10:57:10.556Z,102493.64
2019-05-12T10:59:45.292Z,102475.50
2019-05-12T11:02:13.942Z,102484.48
2019-05-12T11:04:44.209Z,102498.34
2019-05-12T11:07:14.226Z,102492.13
2019-05-12T11:09:44.143Z,102482.01
2019-05-12T11:12:19.256Z,102509.62
2019-05-12T11:14:45.771Z,102497.31
2019-05-12T11:17:16.971Z,102496.81
2019-05-12T11:19:51.304Z,102493.72
2019-05-12T11:22:19.619Z,102495.95
2019-05-12T11:24:52.841Z,102500.57
2019-05-12T11:27:23.961Z,102502.45
2019-05-12T11:29:53.758Z,102501.59
2019-05-12T11:32:23.645Z,102510.42
2019-05-12T11:34:53.762Z,102510.78
2019-05-12T11:37:23.642Z,102508.97
2019-05-12T11:40:09.257Z,102499.96
2019-05-12T11:42:33.651Z,102498.22
2019-05-12T11:45:03.388Z,102505.24
2019-05-12T11:47:37.124Z,102504.95
2019-05-12T11:50:09.729Z,102519.59
2019-05-12T11:52:37.434Z,102511.31
2019-05-12T11:55:09.435Z,102471.54
2019-05-12T11:57:39.349Z,102513.75
2019-05-12T12:00:13.854Z,102530.84
2019-05-12T12:02:43.810Z,102524.61
2019-05-12T12:05:14.031Z,102516.50
2019-05-12T12:07:50.667Z,102512.25
2019-05-12T12:10:16.692Z,102517.52
2019-05-12T12:12:49.293Z,102518.98
2019-05-12T12:15:20.524Z,102529.03
2019-05-12T12:17:50.079Z,102529.38
2019-05-12T12:20:22.475Z,102523.86
2019-05-12T12:22:54.122Z,102519.17
2019-05-12T12:25:30.253Z,102523.21
2019-05-12T12:28:00.450Z,102521.30
2019-05-12T12:30:30.455Z,102519.44
2019-05-12T12:33:03.638Z,102523.02
2019-05-12T12:35:34.394Z,102525.78
2019-05-12T12:38:04.711Z,102521.25
2019-05-12T12:40:34.674Z,102524.23
2019-05-12T12:43:04.648Z,102522.03
2019-05-12T12:45:40.817Z,102532.34
2019-05-12T12:48:11.097Z,102535.30
2019-05-12T12:50:41.053Z,102541.56
2019-05-12T12:53:11.278Z,102546.18
2019-05-12T12:55:43.569Z,102546.07
2019-05-12T12:58:14.078Z,102538.23
2019-05-12T13:00:53.671Z,102542.28
2019-05-12T13:03:19.593Z,102549.33
2019-05-12T13:05:47.563Z,102548.25
2019-05-12T13:08:17.694Z,102544.19
2019-05-12T13:10:51.395Z,102545.02
2019-05-12T13:13:20.120Z,102556.05
2019-05-12T13:15:50.119Z,102548.73
2019-05-12T13:18:25.770Z,102544.96
2019-05-12T13:20:53.959Z,102556.83
2019-05-12T13:23:36.678Z,102543.66
2019-05-12T13:25:55.541Z,102555.42
2019-05-12T13:28:25.999Z,102566.51
2019-05-12T13:31:08.260Z,102565.09
2019-05-12T13:33:29.383Z,102564.52
2019-05-12T13:35:59.268Z,102567.27
2019-05-12T13:38:30.455Z,102567.05
2019-05-12T13:41:00.731Z,102567.38
2019-05-12T13:43:30.620Z,102566.73
2019-05-12T13:46:00.626Z,102575.08
2019-05-12T13:48:30.534Z,102572.33
2019-05-12T13:51:10.311Z,102575.78
2019-05-12T13:53:33.480Z,102579.75
2019-05-12T13:56:04.829Z,102587.58
2019-05-12T13:58:42.584Z,102587.94
2019-05-12T14:01:20.014Z,102588.00
2019-05-12T14:03:39.862Z,102598.59
2019-05-12T14:06:09.798Z,102595.63
2019-05-12T14:08:39.706Z,102596.11
2019-05-12T14:11:09.607Z,102591.38
2019-05-12T14:13:39.932Z,102601.19
2019-05-12T14:16:10.733Z,102599.00
2019-05-12T14:18:40.830Z,102598.75
2019-05-12T14:21:10.672Z,102601.11
2019-05-12T14:23:40.507Z,102601.52
2019-05-12T14:26:10.507Z,102594.20
2019-05-12T14:28:45.554Z,102608.60
2019-05-12T14:31:24.460Z,102610.41
2019-05-12T14:33:44.299Z,102601.27
2019-05-12T14:36:21.581Z,102615.77
2019-05-12T14:38:46.290Z,102607.58
2019-05-12T14:41:16.178Z,102611.93
2019-05-12T14:43:47.926Z,102614.20
2019-05-12T14:46:18.137Z,102612.02
2019-05-12T14:48:50.470Z,102618.20
2019-05-12T14:51:20.033Z,102615.98
2019-05-12T14:53:50.028Z,102611.96
2019-05-12T14:56:20.204Z,102613.84
2019-05-12T14:58:55.564Z,102606.15
2019-05-12T15:01:23.862Z,102609.73
2019-05-12T15:03:53.611Z,102609.16
2019-05-12T15:06:28.245Z,102617.77
2019-05-12T15:08:55.883Z,102620.95
2019-05-12T15:11:25.852Z,102616.78
2019-05-12T15:13:55.874Z,102629.52
2019-05-12T15:16:25.699Z,102618.56
2019-05-12T15:18:55.527Z,102633.12
2019-05-12T15:21:27.306Z,102624.30
2019-05-12T15:23:57.534Z,102622.83
2019-05-12T15:26:27.531Z,102624.52
2019-05-12T15:28:57.416Z,102618.83
2019-05-12T15:31:27.559Z,102633.73
2019-05-12T15:33:59.550Z,102627.80
2019-05-12T15:36:29.324Z,102637.30
2019-05-12T15:38:59.292Z,102628.09
2019-05-12T15:41:29.193Z,102624.63
2019-05-12T15:43:59.416Z,102625.26
2019-05-12T15:46:34.686Z,102628.97
2019-05-12T15:49:00.776Z,102635.59
2019-05-12T15:51:30.817Z,102637.27
2019-05-12T15:54:06.554Z,102643.92
2019-05-12T15:56:33.625Z,102648.84
2019-05-12T15:59:03.875Z,102648.69
2019-05-12T16:01:33.821Z,102656.01
2019-05-12T16:04:03.846Z,102659.11
2019-05-12T16:06:33.621Z,102660.20
2019-05-12T16:09:05.168Z,102669.61
2019-05-12T16:11:35.187Z,102674.45
2019-05-12T16:14:06.670Z,102674.70
2019-05-12T16:16:42.424Z,102671.09
2019-05-12T16:19:09.335Z,102679.49
2019-05-12T16:21:39.826Z,102676.12
2019-05-12T16:24:12.442Z,102681.91
2019-05-12T16:26:45.260Z,102681.51
2019-05-12T16:29:12.895Z,102682.66
2019-05-12T16:31:45.648Z,102680.11
2019-05-12T16:34:14.849Z,102687.13
2019-05-12T16:36:47.589Z,102688.81
2019-05-12T16:39:17.004Z,102695.22
2019-05-12T16:41:47.266Z,102697.39
2019-05-12T16:44:23.152Z,102690.25
2019-05-12T16:46:49.046Z,102694.13
2019-05-12T16:49:25.018Z,102707.18
2019-05-12T16:51:51.203Z,102702.00
2019-05-12T16:54:24.033Z,102707.06
2019-05-12T16:56:54.159Z,102709.39
2019-05-12T16:59:24.617Z,102711.04
2019-05-12T17:01:59.323Z,102710.56
2019-05-12T17:04:26.270Z,102704.94
2019-05-12T17:06:56.081Z,102711.70
2019-05-12T17:09:26.023Z,102723.61
2019-05-12T17:11:55.981Z,102720.41
2019-05-12T17:14:28.642Z,102722.76
2019-05-12T17:16:57.438Z,102727.51
2019-05-12T17:19:27.555Z,102733.83
2019-05-12T17:21:59.493Z,102735.11
2019-05-12T17:24:29.623Z,102747.95
2019-05-12T17:26:59.508Z,102745.11
2019-05-12T17:29:29.729Z,102751.08
2019-05-12T17:32:00.079Z,102748.02
2019-05-12T17:34:29.902Z,102748.58
2019-05-12T17:37:00.581Z,102750.57
2019-05-12T17:39:35.787Z,102749.11
2019-05-12T17:42:03.112Z,102763.77
2019-05-12T17:44:36.617Z,102764.13
2019-05-12T17:47:04.593Z,102764.31
2019-05-12T17:49:34.875Z,102766.84
2019-05-12T17:52:13.449Z,102763.20
2019-05-12T17:54:36.753Z,102775.29
2019-05-12T17:57:09.596Z,102775.47
2019-05-12T17:59:41.881Z,102774.91
2019-05-12T18:02:13.187Z,102773.64
2019-05-12T18:04:43.729Z,102778.14
2019-05-12T18:07:19.131Z,102779.39
2019-05-12T18:09:50.635Z,102786.41
2019-05-12T18:12:18.427Z,102790.19
2019-05-12T18:14:52.230Z,102798.12
2019-05-12T18:17:20.259Z,102809.09
2019-05-12T18:19:55.337Z,102808.55
2019-05-12T18:22:23.560Z,102807.78
2019-05-12T18:24:54.281Z,102813.16
2019-05-12T18:27:25.709Z,102819.07
2019-05-12T18:29:55.875Z,102828.06
2019-05-12T18:32:26.076Z,102823.73
2019-05-12T18:34:56.150Z,102827.13
2019-05-12T18:37:26.053Z,102830.14
2019-05-12T18:39:56.223Z,102834.81
2019-05-12T18:42:26.123Z,102837.08
2019-05-12T18:45:01.238Z,102838.84
2019-05-12T18:47:33.424Z,102845.29
2019-05-12T18:50:04.596Z,102846.00
2019-05-12T18:52:41.384Z,102848.98
2019-05-12T18:55:07.322Z,102863.52
2019-05-12T18:57:39.361Z,102852.15
2019-05-12T19:00:18.208Z,102857.14
2019-05-12T19:02:51.081Z,102863.42
2019-05-12T19:05:23.993Z,102865.51
2019-05-12T19:07:54.261Z,102864.20
2019-05-12T19:10:25.109Z,102867.73
2019-05-12T19:13:01.241Z,102870.94
2019-05-12T19:15:27.804Z,102878.06
2019-05-12T19:17:58.036Z,102884.34
2019-05-12T19:20:31.315Z,102891.86
2019-05-12T19:23:00.212Z,102889.81
2019-05-12T19:25:35.791Z,102896.39
2019-05-12T19:28:07.050Z,102905.33
2019-05-12T19:30:34.518Z,102905.78
2019-05-12T19:33:10.549Z,102907.35
2019-05-12T19:35:38.081Z,102909.64
2019-05-12T19:38:07.895Z,102913.88
2019-05-12T19:40:37.857Z,102919.79
2019-05-12T19:43:09.838Z,102919.52
2019-05-12T19:45:39.812Z,102924.66
2019-05-12T19:48:23.293Z,102921.91
2019-05-12T19:50:44.517Z,102927.73
2019-05-12T19:53:13.392Z,102928.72
2019-05-12T19:55:44.752Z,102929.93
2019-05-12T19:58:14.769Z,102935.26
2019-05-12T20:00:44.879Z,102938.98
2019-05-12T20:03:15.071Z,102944.11
2019-05-12T20:05:45.056Z,102942.38
2019-05-12T20:08:15.376Z,102950.53
2019-05-12T20:10:49.378Z,102953.91
2019-05-12T20:13:17.806Z,102958.75
2019-05-12T20:15:47.836Z,102956.72
2019-05-12T20:18:17.859Z,102959.07
2019-05-12T20:20:48.033Z,102966.56
2019-05-12T20:23:17.948Z,102969.36
2019-05-12T20:25:48.281Z,102968.39
2019-05-12T20:28:18.217Z,102973.51
2019-05-12T20:30:52.289Z,102970.36
2019-05-12T20:33:20.703Z,102972.95
2019-05-12T20:35:50.584Z,102974.09
2019-05-12T20:38:25.543Z,102974.17
2019-05-12T20:40:54.076Z,102974.25
2019-05-12T20:43:32.065Z,102975.65
2019-05-12T20:45:55.667Z,102977.52
2019-05-12T20:48:30.972Z,102995.59
2019-05-12T20:50:58.024Z,102994.61
2019-05-12T20:53:31.776Z,102985.21
2019-05-12T20:55:59.708Z,102996.80
2019-05-12T20:58:35.394Z,102998.53
2019-05-12T21:01:04.504Z,103002.30
2019-05-12T21:03:33.628Z,103002.80
2019-05-12T21:06:04.413Z,103008.51
2019-05-12T21:08:34.439Z,103005.92
2019-05-12T21:11:04.726Z,103007.80
2019-05-12T21:13:35.395Z,103011.62
2019-05-12T21:16:16.570Z,103015.80
2019-05-12T21:18:46.909Z,103017.56
2019-05-12T21:21:08.993Z,103023.39
2019-05-12T21:23:38.867Z,103024.38
2019-05-12T21:26:08.680Z,103019.75
2019-05-12T21:28:46.046Z,103023.98
2019-05-12T21:31:10.264Z,103026.42
2019-05-12T21:33:41.754Z,103026.34
2019-05-12T21:36:17.362Z,103031.29
2019-05-12T21:38:43.407Z,103038.41
2019-05-12T21:41:15.628Z,103044.68
2019-05-12T21:43:45.744Z,103049.83
2019-05-12T21:46:15.844Z,103049.52
2019-05-12T21:48:45.732Z,103018.59
2019-05-12T21:51:19.929Z,103046.23
2019-05-12T21:53:50.688Z,103046.28
2019-05-12T21:56:20.803Z,103046.06
2019-05-12T21:58:53.738Z,103016.48
2019-05-12T22:01:23.945Z,103057.28
2019-05-12T22:04:01.803Z,103063.68
2019-05-12T22:06:26.099Z,103068.95
2019-05-12T22:09:01.586Z,103063.84
2019-05-12T22:11:34.656Z,103067.27
2019-05-12T22:14:06.285Z,103065.56
2019-05-12T22:16:43.631Z,103071.53
2019-05-12T22:19:09.385Z,103071.66
2019-05-12T22:21:46.948Z,103070.86
2019-05-12T22:24:10.943Z,103071.36
2019-05-12T22:26:45.955Z,103073.28
2019-05-12T22:29:13.633Z,103078.42
2019-05-12T22:31:44.980Z,103071.64
2019-05-12T22:34:15.982Z,103084.64
2019-05-12T22:36:55.305Z,103078.82
2019-05-12T22:39:18.687Z,103081.82
2019-05-12T22:41:49.248Z,103080.23
2019-05-12T22:44:22.104Z,103077.42
2019-05-12T22:46:53.907Z,103082.55
2019-05-12T22:49:23.076Z,103087.10
2019-05-12T22:51:54.598Z,103092.94
2019-05-12T22:54:24.767Z,103085.99
2019-05-12T22:56:55.244Z,103086.91
2019-05-12T22:59:26.246Z,103090.67
2019-05-12T23:01:56.064Z,103092.87
2019-05-12T23:04:35.615Z,103093.11
2019-05-12T23:06:58.453Z,103098.23
2019-05-12T23:09:30.158Z,103098.56
2019-05-12T23:12:00.735Z,103100.42
2019-05-12T23:14:30.701Z,103097.79
2019-05-12T23:17:05.842Z,103101.45
2019-05-12T23:19:33.966Z,103099.64
2019-05-12T23:22:04.288Z,103106.69
2019-05-12T23:24:39.169Z,103107.30
2019-05-12T23:27:08.931Z,103112.64
2019-05-12T23:29:37.675Z,103116.30
2019-05-12T23:32:11.916Z,103115.27
2019-05-12T23:34:44.209Z,103113.92
2019-05-12T23:37:11.282Z,103111.20
2019-05-12T23:39:41.516Z,103115.30
2019-05-12T23:42:13.633Z,103113.83
2019-05-12T23:44:44.150Z,103114.27
2019-05-12T23:47:15.035Z,103118.04
2019-05-12T23:49:44.880Z,103116.69
2019-05-12T23:52:14.725Z,103116.11
2019-05-12T23:54:45.014Z,103119.05
2019-05-12T23:57:15.732Z,103113.38
2019-05-12T23:59:46.725Z,103114.64
